createdAt,value
2018-04-29T00:02:19.804Z,94519.42
2018-04-29T00:04:49.136Z,94512.30
2018-04-29T00:07:19.397Z,94522.12
2018-04-29T00:09:49.772Z,94511.00
2018-04-29T00:12:19.360Z,94512.44
2018-04-29T00:17:48.300Z,94509.83
2018-04-29T00:20:17.290Z,94505.03
2018-04-29T00:22:48.534Z,94502.53
2018-04-29T00:25:18.139Z,94501.41
2018-04-29T00:27:48.083Z,94503.50
2018-04-29T00:30:17.259Z,94497.97
2018-04-29T00:32:47.268Z,94501.20
2018-04-29T00:35:17.706Z,94488.94
2018-04-29T00:37:48.342Z,94502.48
2018-04-29T00:40:18.012Z,94495.91
2018-04-29T00:42:47.808Z,94480.54
2018-04-29T00:45:17.978Z,94482.50
2018-04-29T00:47:53.980Z,94481.68
2018-04-29T00:50:22.937Z,94484.64
2018-04-29T00:52:51.960Z,94488.25
2018-04-29T00:55:21.072Z,94486.92
2018-04-29T00:57:50.814Z,94483.36
2018-04-29T01:00:20.159Z,94487.36
2018-04-29T01:02:49.404Z,94496.23
2018-04-29T01:05:19.108Z,94495.11
2018-04-29T01:07:48.766Z,94493.26
2018-04-29T01:10:18.950Z,94493.05
2018-04-29T01:12:48.793Z,94493.92
2018-04-29T01:15:18.242Z,94488.23
2018-04-29T01:17:48.741Z,94489.77
2018-04-29T01:20:19.245Z,94479.95
2018-04-29T01:22:50.530Z,94487.73
2018-04-29T01:25:19.814Z,94485.63
2018-04-29T01:27:49.886Z,94484.31
2018-04-29T01:30:18.837Z,94487.94
2018-04-29T01:32:50.240Z,94479.54
2018-04-29T01:35:21.218Z,94481.31
2018-04-29T01:37:51.217Z,94484.63
2018-04-29T01:40:20.131Z,94480.05
2018-04-29T01:42:48.524Z,94474.81
2018-04-29T01:45:19.088Z,94476.19
2018-04-29T01:47:49.457Z,94474.68
2018-04-29T01:50:21.191Z,94477.52
2018-04-29T01:52:50.635Z,94469.48
2018-04-29T01:55:20.876Z,94477.73
2018-04-29T01:57:50.654Z,94474.73
2018-04-29T02:00:20.584Z,94473.60
2018-04-29T02:02:50.505Z,94473.87
2018-04-29T02:05:21.934Z,94471.08
2018-04-29T02:07:51.283Z,94473.09
2018-04-29T02:10:25.286Z,94476.41
2018-04-29T02:12:53.759Z,94472.59
2018-04-29T02:15:25.904Z,94464.27
2018-04-29T02:17:54.392Z,94474.45
2018-04-29T02:20:26.429Z,94467.25
2018-04-29T02:22:54.832Z,94469.92
2018-04-29T02:25:27.976Z,94473.50
2018-04-29T02:27:56.421Z,94474.61
2018-04-29T02:30:25.942Z,94470.28
2018-04-29T02:32:54.303Z,94474.59
2018-04-29T02:35:25.444Z,94468.14
2018-04-29T02:37:55.777Z,94460.44
2018-04-29T02:40:24.139Z,94460.20
2018-04-29T02:42:53.070Z,94450.11
2018-04-29T02:45:21.990Z,94448.41
2018-04-29T02:47:51.841Z,94447.73
2018-04-29T02:50:21.046Z,94442.75
2018-04-29T02:52:50.938Z,94444.06
2018-04-29T02:55:22.275Z,94434.41
2018-04-29T02:57:51.836Z,94430.11
2018-04-29T03:00:31.957Z,94428.12
2018-04-29T03:03:00.328Z,94422.81
2018-04-29T03:05:28.802Z,94426.62
2018-04-29T03:07:57.422Z,94420.88
2018-04-29T03:10:25.766Z,94427.02
2018-04-29T03:12:55.970Z,94426.38
2018-04-29T03:15:24.332Z,94419.36
2018-04-29T03:17:55.371Z,94420.91
2018-04-29T03:20:23.876Z,94418.27
2018-04-29T03:22:54.119Z,94420.66
2018-04-29T03:25:22.849Z,94411.10
2018-04-29T03:27:53.516Z,94414.31
2018-04-29T03:30:22.301Z,94420.42
2018-04-29T03:32:52.231Z,94412.97
2018-04-29T03:35:22.162Z,94415.75
2018-04-29T03:37:52.999Z,94423.14
2018-04-29T03:40:21.880Z,94416.92
2018-04-29T03:45:49.563Z,94404.19
2018-04-29T03:48:21.991Z,94394.27
2018-04-29T03:50:51.614Z,94390.20
2018-04-29T03:53:22.648Z,94392.82
2018-04-29T03:55:52.118Z,94395.94
2018-04-29T03:58:32.635Z,94396.34
2018-04-29T04:01:14.845Z,94399.43
2018-04-29T04:03:51.539Z,94402.68
2018-04-29T04:06:23.242Z,94404.00
2018-04-29T04:08:52.410Z,94407.36
2018-04-29T04:11:23.951Z,94400.73
2018-04-29T04:13:52.566Z,94394.13
2018-04-29T04:16:23.455Z,94396.59
2018-04-29T04:18:52.199Z,94399.69
2018-04-29T04:21:24.017Z,94392.73
2018-04-29T04:23:52.900Z,94395.67
2018-04-29T04:26:24.892Z,94399.16
2018-04-29T04:28:53.766Z,94399.95
2018-04-29T04:31:24.315Z,94404.09
2018-04-29T04:33:53.029Z,94400.58
2018-04-29T04:36:22.860Z,94405.40
2018-04-29T04:38:51.617Z,94409.52
2018-04-29T04:41:21.586Z,94404.55
2018-04-29T04:43:51.182Z,94409.03
2018-04-29T04:46:20.700Z,94412.27
2018-04-29T04:48:50.422Z,94406.06
2018-04-29T04:51:20.740Z,94407.09
2018-04-29T04:53:50.730Z,94398.40
2018-04-29T04:56:20.830Z,94394.30
2018-04-29T04:58:50.892Z,94390.86
2018-04-29T05:01:22.989Z,94392.39
2018-04-29T05:03:55.510Z,94389.39
2018-04-29T05:06:25.918Z,94383.75
2018-04-29T05:08:54.332Z,94385.60
2018-04-29T05:11:22.824Z,94386.16
2018-04-29T05:13:51.473Z,94391.98
2018-04-29T05:16:21.358Z,94398.60
2018-04-29T05:18:50.782Z,94387.99
2018-04-29T05:21:19.832Z,94392.66
2018-04-29T05:23:50.752Z,94388.37
2018-04-29T05:26:21.392Z,94381.71
2018-04-29T05:28:52.245Z,94384.05
2018-04-29T05:31:22.700Z,94384.03
2018-04-29T05:33:51.768Z,94377.59
2018-04-29T05:36:21.411Z,94374.33
2018-04-29T05:38:50.769Z,94376.87
2018-04-29T05:41:21.627Z,94372.19
2018-04-29T05:43:51.845Z,94360.31
2018-04-29T05:46:21.673Z,94353.98
2018-04-29T05:48:50.982Z,94351.52
2018-04-29T05:51:20.670Z,94349.51
2018-04-29T05:53:50.651Z,94350.72
2018-04-29T05:56:20.279Z,94355.97
2018-04-29T05:58:53.014Z,94369.56
2018-04-29T06:01:25.199Z,94365.45
2018-04-29T06:03:53.680Z,94371.06
2018-04-29T06:06:24.451Z,94357.66
2018-04-29T06:08:52.837Z,94367.91
2018-04-29T06:11:24.742Z,94357.19
2018-04-29T06:13:53.264Z,94363.68
2018-04-29T06:16:21.701Z,94357.82
2018-04-29T06:18:51.353Z,94355.05
2018-04-29T06:21:20.341Z,94360.44
2018-04-29T06:23:50.934Z,94362.05
2018-04-29T06:26:21.073Z,94356.85
2018-04-29T06:28:51.066Z,94356.88
2018-04-29T06:31:21.347Z,94357.24
2018-04-29T06:33:50.988Z,94357.66
2018-04-29T06:36:23.660Z,94348.81
2018-04-29T06:38:52.764Z,94347.19
2018-04-29T06:41:23.241Z,94337.14
2018-04-29T06:43:52.085Z,94341.16
2018-04-29T06:46:21.975Z,94337.86
2018-04-29T06:48:51.807Z,94333.03
2018-04-29T06:51:21.612Z,94333.73
2018-04-29T06:53:50.835Z,94326.03
2018-04-29T06:56:21.323Z,94328.89
2018-04-29T06:58:55.110Z,94340.98
2018-04-29T07:01:25.915Z,94341.56
2018-04-29T07:03:56.114Z,94333.83
2018-04-29T07:06:26.259Z,94337.95
2018-04-29T07:08:55.560Z,94334.94
2018-04-29T07:11:25.016Z,94337.09
2018-04-29T07:13:56.342Z,94325.15
2018-04-29T07:16:26.373Z,94329.73
2018-04-29T07:18:54.867Z,94317.97
2018-04-29T07:21:23.291Z,94310.04
2018-04-29T07:23:53.956Z,94309.11
2018-04-29T07:26:25.165Z,94334.02
2018-04-29T07:28:53.800Z,94349.64
2018-04-29T07:31:29.282Z,94345.99
2018-04-29T07:33:57.733Z,94355.98
2018-04-29T07:36:26.800Z,94359.67
2018-04-29T07:38:55.194Z,94359.13
2018-04-29T07:41:25.852Z,94366.95
2018-04-29T07:43:54.248Z,94356.52
2018-04-29T07:46:27.523Z,94365.75
2018-04-29T07:48:55.932Z,94361.80
2018-04-29T07:51:26.041Z,94355.51
2018-04-29T07:53:54.454Z,94353.33
2018-04-29T07:56:27.295Z,94347.38
2018-04-29T07:58:55.785Z,94341.27
2018-04-29T08:01:27.071Z,94335.45
2018-04-29T08:03:55.523Z,94335.80
2018-04-29T08:06:25.348Z,94338.17
2018-04-29T08:08:53.826Z,94325.60
2018-04-29T08:11:25.916Z,94323.49
2018-04-29T08:13:54.470Z,94331.69
2018-04-29T08:16:24.665Z,94332.11
2018-04-29T08:18:53.299Z,94332.47
2018-04-29T08:21:25.446Z,94335.29
2018-04-29T08:23:56.478Z,94342.70
2018-04-29T08:26:24.848Z,94340.96
2018-04-29T08:28:54.985Z,94343.16
2018-04-29T08:31:26.234Z,94349.16
2018-04-29T08:33:56.053Z,94356.64
2018-04-29T08:36:24.485Z,94359.42
2018-04-29T08:38:55.295Z,94365.00
2018-04-29T08:41:26.878Z,94365.64
2018-04-29T08:43:56.533Z,94381.06
2018-04-29T08:46:25.972Z,94386.94
2018-04-29T08:48:58.198Z,94389.41
2018-04-29T08:51:27.227Z,94400.61
2018-04-29T08:53:56.990Z,94408.30
2018-04-29T08:56:25.816Z,94410.33
2018-04-29T08:58:55.428Z,94404.02
2018-04-29T09:01:26.894Z,94405.27
2018-04-29T09:03:58.121Z,94390.86
2018-04-29T09:06:27.768Z,94389.58
2018-04-29T09:08:56.619Z,94388.05
2018-04-29T09:11:26.662Z,94390.23
2018-04-29T09:13:56.001Z,94391.28
2018-04-29T09:16:26.089Z,94390.72
2018-04-29T09:18:56.033Z,94378.30
2018-04-29T09:21:25.561Z,94383.78
2018-04-29T09:23:56.690Z,94385.95
2018-04-29T09:26:25.184Z,94386.83
2018-04-29T09:28:54.910Z,94386.42
2018-04-29T09:31:25.204Z,94379.80
2018-04-29T09:33:53.726Z,94382.08
2018-04-29T09:36:25.560Z,94376.67
2018-04-29T09:38:54.055Z,94352.48
2018-04-29T09:41:23.461Z,94349.33
2018-04-29T09:43:51.964Z,94353.69
2018-04-29T09:46:23.772Z,94348.56
2018-04-29T09:48:53.530Z,94347.95
2018-04-29T09:51:23.669Z,94329.66
2018-04-29T09:53:53.279Z,94316.19
2018-04-29T09:56:23.971Z,94311.57
2018-04-29T09:58:52.530Z,94314.41
2018-04-29T10:01:26.155Z,94324.17
2018-04-29T10:03:54.594Z,94322.47
2018-04-29T10:06:24.245Z,94330.52
2018-04-29T10:08:53.090Z,94327.59
2018-04-29T10:11:22.033Z,94328.91
2018-04-29T10:13:50.885Z,94327.05
2018-04-29T10:16:22.763Z,94319.17
2018-04-29T10:18:52.826Z,94325.42
2018-04-29T10:21:22.325Z,94319.68
2018-04-29T10:23:52.446Z,94321.59
2018-04-29T10:26:23.590Z,94322.70
2018-04-29T10:28:53.345Z,94317.33
2018-04-29T10:31:23.773Z,94315.89
2018-04-29T10:33:52.225Z,94314.47
2018-04-29T10:36:21.360Z,94312.52
2018-04-29T10:38:51.259Z,94317.86
2018-04-29T10:41:21.229Z,94318.13
2018-04-29T10:43:51.015Z,94322.92
2018-04-29T10:46:21.914Z,94309.31
2018-04-29T10:48:50.380Z,94295.48
2018-04-29T10:51:19.944Z,94290.63
2018-04-29T10:53:48.842Z,94283.02
2018-04-29T10:56:18.939Z,94273.33
2018-04-29T10:58:48.993Z,94279.67
2018-04-29T11:01:18.489Z,94274.61
2018-04-29T11:03:47.071Z,94267.32
2018-04-29T11:06:18.029Z,94259.43
2018-04-29T11:08:49.039Z,94253.31
2018-04-29T11:11:19.643Z,94247.86
2018-04-29T11:13:49.098Z,94241.29
2018-04-29T11:16:18.206Z,94236.77
2018-04-29T11:18:52.956Z,94233.59
2018-04-29T11:21:22.527Z,94223.86
2018-04-29T11:23:51.640Z,94220.23
2018-04-29T11:26:20.514Z,94217.91
2018-04-29T11:28:50.619Z,94203.83
2018-04-29T11:31:22.197Z,94212.72
2018-04-29T11:33:51.273Z,94201.19
2018-04-29T11:36:20.877Z,94211.66
2018-04-29T11:38:52.821Z,94213.30
2018-04-29T11:41:22.678Z,94218.38
2018-04-29T11:43:52.086Z,94212.82
2018-04-29T11:46:23.794Z,94215.98
2018-04-29T11:48:52.502Z,94201.45
2018-04-29T11:51:26.935Z,94202.39
2018-04-29T11:53:55.478Z,94206.83
2018-04-29T11:56:25.120Z,94210.04
2018-04-29T11:58:54.145Z,94214.17
2018-04-29T12:01:24.265Z,94211.67
2018-04-29T12:03:52.932Z,94207.09
2018-04-29T12:06:22.234Z,94199.45
2018-04-29T12:08:53.300Z,94193.42
2018-04-29T12:11:22.029Z,94190.23
2018-04-29T12:13:51.316Z,94196.48
2018-04-29T12:16:22.012Z,94196.20
2018-04-29T12:18:51.646Z,94198.45
2018-04-29T12:21:20.196Z,94191.63
2018-04-29T12:23:48.845Z,94182.38
2018-04-29T12:26:19.495Z,94168.20
2018-04-29T12:28:54.519Z,94170.70
2018-04-29T12:31:23.112Z,94172.95
2018-04-29T12:33:54.345Z,94168.57
2018-04-29T12:36:25.640Z,94156.03
2018-04-29T12:38:54.266Z,94159.20
2018-04-29T12:41:27.183Z,94147.91
2018-04-29T12:43:57.365Z,94155.55
2018-04-29T12:46:27.842Z,94141.00
2018-04-29T12:48:56.511Z,94140.52
2018-04-29T12:51:25.009Z,94140.63
2018-04-29T12:53:53.448Z,94142.51
2018-04-29T12:56:23.786Z,94148.03
2018-04-29T12:58:54.072Z,94144.30
2018-04-29T13:01:24.723Z,94140.56
2018-04-29T13:03:54.870Z,94139.72
2018-04-29T13:06:24.828Z,94135.14
2018-04-29T13:08:53.461Z,94138.30
2018-04-29T13:11:23.352Z,94134.44
2018-04-29T13:13:57.594Z,94132.30
2018-04-29T13:16:25.959Z,94125.86
2018-04-29T13:18:54.377Z,94120.52
2018-04-29T13:21:24.907Z,94126.59
2018-04-29T13:23:57.495Z,94139.36
2018-04-29T13:26:25.940Z,94154.32
2018-04-29T13:28:54.375Z,94154.98
2018-04-29T13:31:23.854Z,94154.48
2018-04-29T13:33:52.637Z,94163.31
2018-04-29T13:36:21.337Z,94163.01
2018-04-29T13:38:52.023Z,94159.22
2018-04-29T13:41:21.877Z,94153.02
2018-04-29T13:43:55.796Z,94145.47
2018-04-29T13:46:28.270Z,94143.67
2018-04-29T13:48:57.716Z,94143.22
2018-04-29T13:51:27.028Z,94140.49
2018-04-29T13:53:58.442Z,94129.26
2018-04-29T13:56:28.434Z,94124.83
2018-04-29T13:58:59.897Z,94121.53
2018-04-29T14:01:28.316Z,94120.34
2018-04-29T14:03:57.070Z,94112.45
2018-04-29T14:06:25.516Z,94114.02
2018-04-29T14:08:55.302Z,94116.72
2018-04-29T14:11:23.806Z,94107.99
2018-04-29T14:13:53.135Z,94096.73
2018-04-29T14:16:23.147Z,94092.75
2018-04-29T14:18:57.782Z,94074.55
2018-04-29T14:21:26.195Z,94071.81
2018-04-29T14:23:57.658Z,94071.34
2018-04-29T14:26:27.023Z,94063.05
2018-04-29T14:28:58.050Z,94067.67
2018-04-29T14:31:26.836Z,94059.08
2018-04-29T14:33:56.233Z,94055.52
2018-04-29T14:36:25.895Z,94050.39
2018-04-29T14:38:54.313Z,94046.16
2018-04-29T14:41:22.702Z,94050.45
2018-04-29T14:43:52.462Z,94037.08
2018-04-29T14:46:22.717Z,94041.81
2018-04-29T14:48:52.375Z,94038.27
2018-04-29T14:51:21.881Z,94033.94
2018-04-29T14:53:51.479Z,94031.33
2018-04-29T14:56:22.132Z,94026.52
2018-04-29T14:58:52.586Z,94025.72
2018-04-29T15:01:21.725Z,94022.02
2018-04-29T15:03:50.862Z,94015.94
2018-04-29T15:06:20.993Z,94017.25
2018-04-29T15:08:51.910Z,94009.90
2018-04-29T15:11:24.537Z,94002.67
2018-04-29T15:13:55.436Z,94012.34
2018-04-29T15:19:17.318Z,94008.04
2018-04-29T15:21:47.622Z,94004.70
2018-04-29T15:24:17.781Z,94000.44
2018-04-29T15:27:00.833Z,93997.44
2018-04-29T15:29:30.275Z,93996.75
2018-04-29T15:31:58.740Z,93995.26
2018-04-29T15:34:27.498Z,93993.23
2018-04-29T15:36:55.896Z,93996.03
2018-04-29T15:39:28.322Z,93994.37
2018-04-29T15:42:05.688Z,93980.69
2018-04-29T15:44:56.439Z,93982.10
2018-04-29T15:47:31.614Z,93984.05
2018-04-29T15:50:00.080Z,93965.20
2018-04-29T15:52:28.447Z,93964.98
2018-04-29T15:54:56.861Z,93962.30
2018-04-29T15:57:25.228Z,93955.48
2018-04-29T15:59:58.556Z,93959.88
2018-04-29T16:02:28.353Z,93945.98
2018-04-29T16:04:57.702Z,93945.23
2018-04-29T16:07:26.799Z,93939.31
2018-04-29T16:09:57.969Z,93936.67
2018-04-29T16:12:27.755Z,93927.16
2018-04-29T16:14:58.030Z,93921.61
2018-04-29T16:17:26.894Z,93918.77
2018-04-29T16:19:56.155Z,93922.98
2018-04-29T16:22:25.943Z,93912.52
2018-04-29T16:24:55.773Z,93911.44
2018-04-29T16:27:24.290Z,93916.08
2018-04-29T16:29:54.602Z,93906.84
2018-04-29T16:32:23.078Z,93902.95
2018-04-29T16:34:52.830Z,93894.33
2018-04-29T16:37:21.853Z,93895.80
2018-04-29T16:39:51.229Z,93897.61
2018-04-29T16:42:21.237Z,93891.55
2018-04-29T16:44:52.095Z,93888.45
2018-04-29T16:47:26.299Z,93890.00
2018-04-29T16:49:54.786Z,93886.77
2018-04-29T16:52:26.399Z,93882.06
2018-04-29T16:55:20.567Z,93882.19
2018-04-29T16:57:51.599Z,93886.00
2018-04-29T17:00:21.949Z,93888.02
2018-04-29T17:02:51.162Z,93881.72
2018-04-29T17:05:20.642Z,93873.06
2018-04-29T17:07:50.199Z,93874.03
2018-04-29T17:10:25.697Z,93874.43
2018-04-29T17:12:55.577Z,93867.20
2018-04-29T17:15:24.409Z,93864.72
2018-04-29T17:17:53.369Z,93866.92
2018-04-29T17:20:22.386Z,93868.19
2018-04-29T17:22:51.881Z,93863.80
2018-04-29T17:25:21.519Z,93863.82
2018-04-29T17:27:50.935Z,93861.77
2018-04-29T17:30:20.672Z,93857.57
2018-04-29T17:32:50.708Z,93852.11
2018-04-29T17:35:21.170Z,93845.69
2018-04-29T17:37:50.632Z,93848.21
2018-04-29T17:40:21.595Z,93848.42
2018-04-29T17:42:53.984Z,93850.66
2018-04-29T17:45:24.764Z,93856.16
2018-04-29T17:47:53.711Z,93844.03
2018-04-29T17:50:25.988Z,93842.30
2018-04-29T17:52:55.352Z,93842.31
2018-04-29T17:55:24.446Z,93829.47
2018-04-29T17:57:53.285Z,93838.92
2018-04-29T18:00:22.255Z,93832.56
2018-04-29T18:02:51.606Z,93827.75
2018-04-29T18:05:22.482Z,93821.02
2018-04-29T18:07:51.602Z,93815.73
2018-04-29T18:10:20.861Z,93815.15
2018-04-29T18:12:53.073Z,93812.94
2018-04-29T18:15:27.414Z,93809.33
2018-04-29T18:17:57.118Z,93810.14
2018-04-29T18:20:25.542Z,93805.09
2018-04-29T18:22:55.019Z,93801.94
2018-04-29T18:25:23.475Z,93795.69
2018-04-29T18:27:54.055Z,93792.73
2018-04-29T18:30:23.408Z,93789.04
2018-04-29T18:32:53.058Z,93798.14
2018-04-29T18:35:22.780Z,93794.41
2018-04-29T18:37:57.513Z,93799.22
2018-04-29T18:40:28.455Z,93798.48
2018-04-29T18:42:56.882Z,93793.53
2018-04-29T18:45:25.330Z,93784.42
2018-04-29T18:47:56.086Z,93787.24
2018-04-29T18:50:25.673Z,93784.61
2018-04-29T18:52:55.620Z,93775.49
2018-04-29T18:55:24.708Z,93773.02
2018-04-29T18:57:54.174Z,93776.55
2018-04-29T19:00:24.621Z,93777.30
2018-04-29T19:02:53.065Z,93777.15
2018-04-29T19:05:24.103Z,93769.34
2018-04-29T19:07:54.812Z,93769.45
2018-04-29T19:10:23.632Z,93766.02
2018-04-29T19:12:53.479Z,93767.63
2018-04-29T19:15:22.372Z,93766.11
2018-04-29T19:17:52.610Z,93769.38
2018-04-29T19:20:24.772Z,93767.55
2018-04-29T19:22:53.343Z,93772.63
2018-04-29T19:25:21.928Z,93774.42
2018-04-29T19:27:57.509Z,93766.69
2018-04-29T19:30:29.913Z,93756.90
2018-04-29T19:35:28.013Z,93757.29
2018-04-29T19:38:08.671Z,93754.89
2018-04-29T19:40:43.634Z,93749.41
2018-04-29T19:43:14.290Z,93745.66
2018-04-29T19:45:42.905Z,93744.77
2018-04-29T19:48:13.111Z,93746.81
2018-04-29T19:50:48.050Z,93738.66
2018-04-29T19:53:22.824Z,93733.80
2018-04-29T19:55:57.651Z,93723.97
2018-04-29T19:58:27.804Z,93723.05
2018-04-29T20:00:59.264Z,93715.16
2018-04-29T20:03:29.037Z,93721.63
2018-04-29T20:05:58.555Z,93708.92
2018-04-29T20:08:29.802Z,93703.63
2018-04-29T20:10:59.274Z,93694.82
2018-04-29T20:13:31.711Z,93689.07
2018-04-29T20:16:01.955Z,93676.92
2018-04-29T20:18:31.955Z,93666.03
2018-04-29T20:21:00.348Z,93662.34
2018-04-29T20:23:28.752Z,93658.87
2018-04-29T20:25:59.975Z,93656.94
2018-04-29T20:28:28.538Z,93648.20
2018-04-29T20:30:56.965Z,93635.48
2018-04-29T20:33:25.397Z,93635.09
2018-04-29T20:35:53.890Z,93625.14
2018-04-29T20:38:22.287Z,93616.11
2018-04-29T20:40:50.676Z,93613.94
2018-04-29T20:43:19.053Z,93614.15
2018-04-29T20:45:47.418Z,93616.02
2018-04-29T20:48:15.815Z,93604.71
2018-04-29T20:50:44.236Z,93594.97
2018-04-29T20:53:12.635Z,93588.20
2018-04-29T20:55:41.034Z,93581.61
2018-04-29T20:58:09.396Z,93560.80
2018-04-29T21:00:37.824Z,93561.91
2018-04-29T21:03:06.217Z,93556.74
2018-04-29T21:05:34.587Z,93558.44
2018-04-29T21:08:03.044Z,93547.34
2018-04-29T21:10:31.375Z,93547.39
2018-04-29T21:12:59.801Z,93536.55
2018-04-29T21:15:28.158Z,93542.02
2018-04-29T21:17:56.518Z,93540.39
2018-04-29T21:20:24.877Z,93535.22
2018-04-29T21:22:53.378Z,93536.14
2018-04-29T21:25:21.801Z,93531.63
2018-04-29T21:27:50.328Z,93537.47
2018-04-29T21:30:18.760Z,93528.25
2018-04-29T21:32:47.340Z,93519.95
2018-04-29T21:35:15.742Z,93522.39
2018-04-29T21:37:44.142Z,93517.22
2018-04-29T21:40:12.559Z,93512.08
2018-04-29T21:42:41.021Z,93501.36
2018-04-29T21:45:09.519Z,93493.00
2018-04-29T21:47:37.928Z,93494.15
2018-04-29T21:50:06.444Z,93498.07
2018-04-29T21:52:34.861Z,93487.83
2018-04-29T21:55:03.354Z,93487.57
2018-04-29T21:57:31.726Z,93483.48
2018-04-29T22:00:00.125Z,93477.33
2018-04-29T22:02:28.538Z,93459.56
2018-04-29T22:04:56.907Z,93458.17
2018-04-29T22:07:25.357Z,93459.48
2018-04-29T22:09:53.765Z,93456.78
2018-04-29T22:12:22.172Z,93455.30
2018-04-29T22:14:50.555Z,93455.84
2018-04-29T22:17:18.955Z,93454.92
2018-04-29T22:19:47.342Z,93445.39
2018-04-29T22:22:16.512Z,93442.20
2018-04-29T22:24:44.933Z,93434.47
2018-04-29T22:27:13.342Z,93433.78
2018-04-29T22:29:41.710Z,93418.94
2018-04-29T22:32:10.078Z,93418.88
2018-04-29T22:34:38.463Z,93410.06
2018-04-29T22:37:07.040Z,93409.98
2018-04-29T22:39:35.365Z,93413.36
2018-04-29T22:42:03.835Z,93397.64
2018-04-29T22:44:32.202Z,93395.95
2018-04-29T22:47:00.702Z,93390.30
2018-04-29T22:49:29.202Z,93395.21
2018-04-29T22:51:57.592Z,93385.70
2018-04-29T22:54:25.981Z,93378.08
2018-04-29T22:56:54.397Z,93372.14
2018-04-29T22:59:23.807Z,93375.91
2018-04-29T23:01:52.282Z,93373.53
2018-04-29T23:04:20.710Z,93365.64
2018-04-29T23:06:49.110Z,93362.87
2018-04-29T23:09:17.500Z,93358.12
2018-04-29T23:11:45.931Z,93352.05
2018-04-29T23:14:14.382Z,93356.23
2018-04-29T23:16:42.778Z,93339.48
2018-04-29T23:19:12.148Z,93336.09
2018-04-29T23:21:40.577Z,93334.89
2018-04-29T23:24:08.982Z,93325.34
2018-04-29T23:26:37.437Z,93321.75
2018-04-29T23:29:05.876Z,93320.62
2018-04-29T23:31:34.315Z,93308.21
2018-04-29T23:34:02.742Z,93304.51
2018-04-29T23:36:31.111Z,93296.94
2018-04-29T23:38:59.546Z,93294.19
2018-04-29T23:41:27.962Z,93283.34
2018-04-29T23:43:56.443Z,93289.53
2018-04-29T23:46:24.879Z,93280.47
2018-04-29T23:48:53.339Z,93277.97
2018-04-29T23:51:21.760Z,93270.33
2018-04-29T23:53:50.169Z,93274.31
2018-04-29T23:56:18.569Z,93266.58
2018-04-29T23:58:46.988Z,93263.11
